Terminal Aerodrome Forecast
Issued by NWS

Home | Current Version | Previous Version | Text Only | Print | Product List | Glossary On
Versions: 1 2 3 4 5 6 7 8 9 10 11 12 13 14 15 16 17 18 19 20 21 22 23 24
000
FTUS41 KGYX 301700 RRA
TAFAUG
TAF
KAUG 301748Z 3018/3118 VRB05KT P6SM BKN050
     FM302000 19006KT P6SM SCT050
     FM310000 VRB03KT P6SM SKC
     FM310700 VRB03KT 1/2SM FG VV002
     FM311300 19007KT P6SM BKN050=

USA.gov is the U.S. government's official web portal to all federal, state and local government web resources and services.